Time;durP1;ratioP1;P1;durP2;ratioP2;P2;SDS_P1;SDS_P2;PMS_P1;PMS_P2;Temp;Humidity;BMP_temperature;BMP_pressure;BME280_temperature;BME280_humidity;BME280_pressure;Samples;Min_cycle;Max_cycle;Signal;HPM_P1;HPM_P2
2023/10/02 00:03:39;;;;;;;390.75;100.55;;;;;;;;;;5036132;28;20119;-56
2023/10/02 00:06:04;;;;;;;420.00;102.93;;;;;;;;;;5035060;28;20029;-57
2023/10/02 00:08:39;;;;;;;422.63;102.28;;;;;;;;;;5035829;28;20039;-55
2023/10/02 00:14:27;;;;;;;378.30;101.45;;;;;;;;;;5033719;28;20086;-56
2023/10/02 00:16:59;;;;;;;539.03;109.85;;;;;;;;;;5032404;28;20044;-56
2023/10/02 00:19:38;;;;;;;411.10;103.03;;;;;;;;;;5033895;28;20859;-56
2023/10/02 00:22:06;;;;;;;413.73;102.90;;;;;;;;;;5034821;28;20493;-55
2023/10/02 00:24:37;;;;;;;434.15;104.13;;;;;;;;;;5033675;28;20069;-55
2023/10/02 00:27:02;;;;;;;382.15;102.95;;;;;;;;;;5034282;28;20033;-55
2023/10/02 00:29:28;;;;;;;397.92;103.05;;;;;;;;;;5036035;28;20083;-55
2023/10/02 00:31:54;;;;;;;524.15;108.03;;;;;;;;;;5031873;28;20067;-57
2023/10/02 00:34:31;;;;;;;383.75;101.13;;;;;;;;;;5035709;28;20022;-56
2023/10/02 00:37:06;;;;;;;518.80;107.35;;;;;;;;;;5033441;28;20044;-55
2023/10/02 00:39:32;;;;;;;360.58;100.20;;;;;;;;;;5035866;28;20118;-55
2023/10/02 00:42:24;;;;;;;407.60;101.82;;;;;;;;;;5034390;28;20112;-57
2023/10/02 00:44:57;;;;;;;558.15;110.18;;;;;;;;;;5032355;28;20170;-54
2023/10/02 00:47:41;;;;;;;418.33;103.13;;;;;;;;;;5034400;28;20037;-55
2023/10/02 00:50:07;;;;;;;367.48;101.80;;;;;;;;;;5035046;28;20033;-56
2023/10/02 00:52:33;;;;;;;406.40;103.28;;;;;;;;;;5035627;28;20053;-56
2023/10/02 00:55:02;;;;;;;405.48;103.80;;;;;;;;;;5032246;28;21943;-56
2023/10/02 00:57:28;;;;;;;388.67;103.85;;;;;;;;;;5033123;28;20035;-55
2023/10/02 00:59:59;;;;;;;517.60;108.70;;;;;;;;;;5032692;28;20030;-56
2023/10/02 01:02:24;;;;;;;367.33;102.17;;;;;;;;;;5034278;28;20044;-56
2023/10/02 01:04:51;;;;;;;530.38;109.72;;;;;;;;;;5031337;28;20021;-57
2023/10/02 01:07:17;;;;;;;450.98;105.53;;;;;;;;;;5033626;28;20102;-56
2023/10/02 01:10:06;;;;;;;441.50;104.68;;;;;;;;;;5033448;28;20470;-55
2023/10/02 01:12:38;;;;;;;385.15;102.47;;;;;;;;;;5034573;28;20029;-55
2023/10/02 01:15:08;;;;;;;382.25;102.65;;;;;;;;;;5030994;28;20024;-54
2023/10/02 01:17:34;;;;;;;379.20;103.35;;;;;;;;;;5033861;28;20204;-56
2023/10/02 01:20:00;;;;;;;382.67;103.10;;;;;;;;;;5032434;28;21177;-54
2023/10/02 01:22:43;;;;;;;346.92;101.13;;;;;;;;;;5032340;28;20029;-56
2023/10/02 01:25:14;;;;;;;476.95;105.50;;;;;;;;;;5031726;28;20087;-57
2023/10/02 01:27:48;;;;;;;382.53;102.97;;;;;;;;;;5032114;28;20037;-56
2023/10/02 01:30:16;;;;;;;381.63;84.72;;;;;;;;;;5033177;28;20581;-55
2023/10/02 01:33:11;;;;;;;382.75;91.45;;;;;;;;;;5033426;28;20017;-56
2023/10/02 01:35:37;;;;;;;403.42;92.32;;;;;;;;;;5032676;28;20040;-56
2023/10/02 01:38:06;;;;;;;391.08;93.80;;;;;;;;;;5031847;28;20018;-54
2023/10/02 01:40:35;;;;;;;357.02;92.68;;;;;;;;;;5035259;28;20032;-55
2023/10/02 01:43:12;;;;;;;449.35;96.25;;;;;;;;;;5034548;28;20021;-56
2023/10/02 01:45:42;;;;;;;399.23;95.93;;;;;;;;;;5033384;28;20033;-58
2023/10/02 01:48:08;;;;;;;442.20;97.05;;;;;;;;;;5034854;28;20025;-56
2023/10/02 01:50:35;;;;;;;383.27;95.13;;;;;;;;;;5034672;28;20067;-55
2023/10/02 01:53:05;;;;;;;487.77;99.60;;;;;;;;;;5033727;28;20546;-55
2023/10/02 01:55:31;;;;;;;384.38;96.03;;;;;;;;;;5032668;28;20538;-54
2023/10/02 01:57:56;;;;;;;462.00;98.93;;;;;;;;;;5031542;28;20032;-55
2023/10/02 02:00:24;;;;;;;361.55;80.85;;;;;;;;;;5033351;28;20021;-55
2023/10/02 02:03:14;;;;;;;412.52;89.97;;;;;;;;;;5033696;28;20052;-55
2023/10/02 02:05:34;;;;;;;402.65;90.72;;;;;;;;;;5033394;28;20098;-56
2023/10/02 02:08:21;;;;;;;519.22;93.30;;;;;;;;;;5032559;28;20037;-56
2023/10/02 02:10:46;;;;;;;368.77;81.32;;;;;;;;;;5036213;28;20731;-57
2023/10/02 02:13:13;;;;;;;440.02;90.05;;;;;;;;;;5036572;28;20028;-55
2023/10/02 02:15:44;;;;;;;346.98;87.88;;;;;;;;;;5038026;28;20112;-56
2023/10/02 02:18:09;;;;;;;382.95;88.63;;;;;;;;;;5035841;28;20017;-55
2023/10/02 02:21:10;;;;;;;393.63;90.15;;;;;;;;;;5036497;28;20091;-55
2023/10/02 02:23:30;;;;;;;396.10;92.57;;;;;;;;;;5033751;28;20045;-55
2023/10/02 02:25:55;;;;;;;425.35;93.28;;;;;;;;;;5035416;28;20068;-56
2023/10/02 02:28:21;;;;;;;370.80;90.25;;;;;;;;;;5036511;28;20053;-56
2023/10/02 02:30:47;;;;;;;407.38;93.47;;;;;;;;;;5035093;28;20094;-54
2023/10/02 02:33:13;;;;;;;389.83;93.10;;;;;;;;;;5036974;28;20345;-57
2023/10/02 02:35:44;;;;;;;365.77;93.75;;;;;;;;;;5037465;28;20496;-56
2023/10/02 02:38:14;;;;;;;409.10;94.40;;;;;;;;;;5034197;28;20434;-56
2023/10/02 02:40:40;;;;;;;357.67;92.93;;;;;;;;;;5037349;28;20036;-57
2023/10/02 02:43:13;;;;;;;408.42;94.43;;;;;;;;;;5035397;28;20064;-54
2023/10/02 02:45:38;;;;;;;412.05;95.38;;;;;;;;;;5036381;28;20040;-56
2023/10/02 02:48:06;;;;;;;413.98;95.63;;;;;;;;;;5037987;28;20017;-55
2023/10/02 02:50:35;;;;;;;362.50;94.90;;;;;;;;;;5037991;28;20485;-56
2023/10/02 02:55:44;;;;;;;395.05;94.68;;;;;;;;;;5035777;28;20051;-56
2023/10/02 02:58:10;;;;;;;427.75;96.57;;;;;;;;;;5035400;28;20029;-57
2023/10/02 03:00:39;;;;;;;378.75;94.45;;;;;;;;;;5035101;28;20712;-54
2023/10/02 03:03:29;;;;;;;574.80;101.32;;;;;;;;;;5034767;28;20041;-56
2023/10/02 03:05:52;;;;;;;430.17;97.22;;;;;;;;;;5036216;28;20076;-54
2023/10/02 03:08:18;;;;;;;375.23;94.78;;;;;;;;;;5035629;28;20564;-55
2023/10/02 03:10:46;;;;;;;404.45;97.28;;;;;;;;;;5036387;28;20032;-54
2023/10/02 03:13:17;;;;;;;419.63;96.10;;;;;;;;;;5037280;28;20650;-54
2023/10/02 03:15:46;;;;;;;387.20;94.70;;;;;;;;;;5035913;28;20583;-55
2023/10/02 03:18:30;;;;;;;377.98;96.40;;;;;;;;;;5035678;28;20064;-56
2023/10/02 03:23:39;;;;;;;390.00;97.82;;;;;;;;;;5036926;28;20027;-54
2023/10/02 03:26:21;;;;;;;524.33;105.03;;;;;;;;;;5034895;28;20037;-53
2023/10/02 03:28:47;;;;;;;396.75;97.38;;;;;;;;;;5036815;28;20375;-54
2023/10/02 03:31:16;;;;;;;391.92;98.45;;;;;;;;;;5035863;28;20059;-54
2023/10/02 03:33:42;;;;;;;433.23;98.72;;;;;;;;;;5036900;28;20025;-54
2023/10/02 03:36:10;;;;;;;402.67;97.55;;;;;;;;;;5034734;28;20048;-56
2023/10/02 03:38:41;;;;;;;360.98;96.63;;;;;;;;;;5036623;28;20029;-55
2023/10/02 03:41:06;;;;;;;403.48;97.53;;;;;;;;;;5034470;28;20120;-54
2023/10/02 03:43:35;;;;;;;383.83;98.40;;;;;;;;;;5035882;28;20170;-53
2023/10/02 03:46:04;;;;;;;445.20;101.05;;;;;;;;;;5035389;28;20290;-54
2023/10/02 03:48:30;;;;;;;336.75;97.03;;;;;;;;;;5036391;28;20028;-55
2023/10/02 03:50:56;;;;;;;499.73;104.95;;;;;;;;;;5035187;28;20312;-54
2023/10/02 03:53:31;;;;;;;348.33;96.47;;;;;;;;;;5036698;28;20478;-55
2023/10/02 03:55:59;;;;;;;516.60;105.63;;;;;;;;;;5036085;28;20047;-55
2023/10/02 03:58:38;;;;;;;388.80;98.90;;;;;;;;;;5037647;28;20917;-56
2023/10/02 04:01:08;;;;;;;431.92;99.95;;;;;;;;;;5036764;28;20078;-55
2023/10/02 04:03:33;;;;;;;397.20;97.57;;;;;;;;;;5036305;28;20040;-54
2023/10/02 04:06:00;;;;;;;522.70;104.00;;;;;;;;;;5034627;28;20029;-55
2023/10/02 04:08:37;;;;;;;405.55;98.82;;;;;;;;;;5036770;28;20342;-54
2023/10/02 04:11:05;;;;;;;453.33;101.70;;;;;;;;;;5033856;28;20044;-55
2023/10/02 04:13:33;;;;;;;453.35;99.93;;;;;;;;;;5035135;28;20532;-54
2023/10/02 04:18:45;;;;;;;421.85;100.28;;;;;;;;;;5035755;28;20032;-54
2023/10/02 04:21:12;;;;;;;397.55;98.18;;;;;;;;;;5033445;28;20048;-56
2023/10/02 04:23:40;;;;;;;436.48;99.65;;;;;;;;;;5035455;28;20447;-56
2023/10/02 04:26:19;;;;;;;419.70;98.68;;;;;;;;;;5034624;28;20326;-56
2023/10/02 04:28:55;;;;;;;357.95;84.38;;;;;;;;;;5035697;28;20441;-56
2023/10/02 04:31:34;;;;;;;348.83;78.40;;;;;;;;;;5015895;28;20067;-53
2023/10/02 04:36:44;;;;;;;352.48;84.07;;;;;;;;;;5034106;28;20047;-55
2023/10/02 04:39:51;;;;;;;519.33;95.72;;;;;;;;;;5033770;28;20017;-54
2023/10/02 04:42:19;;;;;;;484.52;97.15;;;;;;;;;;5034355;28;20036;-57
2023/10/02 04:44:45;;;;;;;398.50;92.72;;;;;;;;;;5035156;28;20013;-55
2023/10/02 04:47:17;;;;;;;498.88;97.45;;;;;;;;;;5034647;28;20413;-56
2023/10/02 04:50:34;;;;;;;388.23;92.28;;;;;;;;;;5017680;28;20017;-54
2023/10/02 04:52:55;;;;;;;388.02;94.68;;;;;;;;;;5034184;28;20482;-55
2023/10/02 04:55:24;;;;;;;358.27;95.30;;;;;;;;;;5033322;28;20392;-54
2023/10/02 04:57:50;;;;;;;395.52;95.20;;;;;;;;;;5034119;28;20027;-55
2023/10/02 05:01:23;;;;;;;439.00;99.60;;;;;;;;;;5032158;28;20063;-56
2023/10/02 05:03:24;;;;;;;545.90;104.40;;;;;;;;;;5030298;28;20048;-54
2023/10/02 05:05:53;;;;;;;339.48;96.07;;;;;;;;;;5034411;28;20118;-55
2023/10/02 05:08:21;;;;;;;427.92;99.90;;;;;;;;;;5035257;28;20114;-56
2023/10/02 05:11:06;;;;;;;451.60;100.25;;;;;;;;;;5032819;28;20276;-56
2023/10/02 05:16:15;;;;;;;370.27;89.47;;;;;;;;;;5033722;28;20060;-56
2023/10/02 05:18:44;;;;;;;376.35;83.93;;;;;;;;;;5035287;28;20048;-55
2023/10/02 05:21:16;;;;;;;532.72;94.80;;;;;;;;;;5032387;28;20268;-55
2023/10/02 05:23:43;;;;;;;379.70;90.45;;;;;;;;;;5036043;28;20107;-56
2023/10/02 05:26:29;;;;;;;546.97;98.70;;;;;;;;;;5032987;28;20362;-54
2023/10/02 05:28:55;;;;;;;354.70;91.03;;;;;;;;;;5033242;28;20029;-54
2023/10/02 05:31:21;;;;;;;388.15;91.60;;;;;;;;;;5033038;28;20060;-54
2023/10/02 05:33:48;;;;;;;413.60;94.07;;;;;;;;;;5034918;28;20059;-55
2023/10/02 05:36:19;;;;;;;371.20;93.95;;;;;;;;;;5032910;28;20044;-56
2023/10/02 05:39:05;;;;;;;411.27;94.47;;;;;;;;;;5034515;28;20092;-55
2023/10/02 05:41:41;;;;;;;396.45;95.65;;;;;;;;;;5034432;28;20083;-55
2023/10/02 05:44:13;;;;;;;508.08;99.70;;;;;;;;;;5037283;28;20041;-56
2023/10/02 05:46:55;;;;;;;;;;;;;;;;;;5039680;28;20526;-54
2023/10/02 05:49:23;;;;;;;381.40;93.32;;;;;;;;;;5038514;28;20466;-57
2023/10/02 05:51:48;;;;;;;380.02;92.55;;;;;;;;;;5038825;28;20033;-57
2023/10/02 05:54:13;;;;;;;497.25;96.70;;;;;;;;;;5020122;28;20021;-57
2023/10/02 05:56:39;;;;;;;423.10;92.53;;;;;;;;;;5037321;28;20426;-56
2023/10/02 05:59:04;;;;;;;503.85;96.03;;;;;;;;;;5037695;28;20681;-55
2023/10/02 06:01:34;;;;;;;359.98;88.53;;;;;;;;;;5039832;28;20029;-56
2023/10/02 06:04:04;;;;;;;490.40;92.35;;;;;;;;;;5036258;28;20510;-55
2023/10/02 06:06:35;;;;;;;399.40;86.70;;;;;;;;;;5038534;28;20119;-55
2023/10/02 06:09:03;;;;;;;445.15;89.30;;;;;;;;;;5037814;28;20036;-56
2023/10/02 06:11:59;;;;;;;369.88;85.13;;;;;;;;;;5038629;28;20029;-55
2023/10/02 06:14:14;;;;;;;548.50;93.25;;;;;;;;;;5036283;28;20017;-55
2023/10/02 06:16:45;;;;;;;409.80;83.53;;;;;;;;;;5037230;28;20401;-56
2023/10/02 06:19:13;;;;;;;405.48;82.10;;;;;;;;;;5037759;28;20401;-56
2023/10/02 06:22:04;;;;;;;429.75;82.65;;;;;;;;;;5037604;28;20191;-57
2023/10/02 06:24:29;;;;;;;328.60;75.75;;;;;;;;;;5039008;28;20196;-56
2023/10/02 06:26:58;;;;;;;352.20;76.80;;;;;;;;;;5038705;28;20333;-57
2023/10/02 06:29:29;;;;;;;315.55;73.05;;;;;;;;;;5038341;28;20328;-57
2023/10/02 06:31:58;;;;;;;328.88;72.80;;;;;;;;;;5037774;28;20541;-56
2023/10/02 06:34:25;;;;;;;346.90;71.65;;;;;;;;;;5038427;28;20029;-55
2023/10/02 06:37:02;;;;;;;327.60;68.85;;;;;;;;;;5038287;28;20923;-55
2023/10/02 06:39:29;;;;;;;359.60;68.22;;;;;;;;;;5037883;28;20020;-56
2023/10/02 06:42:03;;;;;;;313.90;64.22;;;;;;;;;;5021593;28;20091;-56
2023/10/02 06:44:35;;;;;;;326.27;62.15;;;;;;;;;;5038253;28;20033;-58
2023/10/02 06:47:04;;;;;;;282.75;59.97;;;;;;;;;;5036268;28;20071;-57
2023/10/02 06:49:29;;;;;;;263.77;56.35;;;;;;;;;;5038048;28;20483;-55
2023/10/02 06:52:10;;;;;;;306.20;54.03;;;;;;;;;;5037603;28;20029;-56
2023/10/02 06:54:42;;;;;;;237.30;49.20;;;;;;;;;;5037673;28;20426;-57
2023/10/02 06:57:11;;;;;;;408.77;54.38;;;;;;;;;;5036100;28;20036;-56
2023/10/02 06:59:38;;;;;;;215.82;42.67;;;;;;;;;;5038868;28;20099;-56
2023/10/02 07:02:04;;;;;;;288.27;44.70;;;;;;;;;;5038218;28;20060;-57
2023/10/02 07:04:34;;;;;;;435.50;220.45;;;;;;;;;;5038821;28;20027;-58
2023/10/02 07:07:07;;;;;;;250.70;67.85;;;;;;;;;;5036539;28;20025;-55
2023/10/02 07:09:36;;;;;;;338.15;106.70;;;;;;;;;;5038618;28;20013;-57
2023/10/02 07:12:14;;;;;;;278.63;73.00;;;;;;;;;;5037404;28;20025;-57
2023/10/02 07:14:41;;;;;;;302.85;164.98;;;;;;;;;;5037351;28;20021;-57
2023/10/02 07:17:22;;;;;;;543.70;342.88;;;;;;;;;;5039655;28;20071;-56
2023/10/02 07:19:48;;;;;;;210.07;29.02;;;;;;;;;;5042702;28;20020;-57
2023/10/02 07:22:23;;;;;;;450.60;196.98;;;;;;;;;;5042018;28;20060;-54
2023/10/02 07:24:52;;;;;;;292.45;190.90;;;;;;;;;;5042087;28;20386;-58
2023/10/02 07:27:24;;;;;;;530.33;336.75;;;;;;;;;;5039651;28;20580;-56
2023/10/02 07:29:59;;;;;;;295.33;145.15;;;;;;;;;;5042121;28;20021;-57
2023/10/02 07:32:29;;;;;;;259.88;115.88;;;;;;;;;;5040376;28;20021;-58
2023/10/02 07:34:55;;;;;;;170.73;19.25;;;;;;;;;;5041145;28;20386;-57
2023/10/02 07:37:21;;;;;;;243.57;127.22;;;;;;;;;;5039271;28;20574;-54
2023/10/02 07:39:56;;;;;;;204.00;28.90;;;;;;;;;;5040656;28;20025;-57
2023/10/02 07:42:22;;;;;;;207.82;61.92;;;;;;;;;;5039951;28;20037;-53
2023/10/02 07:44:47;;;;;;;303.65;152.20;;;;;;;;;;5042821;28;20037;-56
2023/10/02 07:47:19;;;;;;;462.87;281.00;;;;;;;;;;5041370;28;20033;-54
2023/10/02 07:49:47;;;;;;;268.95;84.28;;;;;;;;;;5042746;28;20458;-56
2023/10/02 07:52:26;;;;;;;228.77;52.67;;;;;;;;;;5041532;28;20037;-55
2023/10/02 07:54:52;;;;;;;279.05;150.30;;;;;;;;;;5042497;28;20035;-55
2023/10/02 07:57:19;;;;;;;234.25;18.75;;;;;;;;;;5040355;28;20127;-55
2023/10/02 07:59:44;;;;;;;264.93;73.10;;;;;;;;;;5042235;28;20139;-55
2023/10/02 08:02:23;;;;;;;321.37;132.10;;;;;;;;;;5042051;28;20324;-55
2023/10/02 08:04:48;;;;;;;370.27;193.65;;;;;;;;;;5041507;28;20282;-53
2023/10/02 08:07:14;;;;;;;361.80;174.00;;;;;;;;;;5039996;28;20032;-55
2023/10/02 08:09:47;;;;;;;246.68;139.77;;;;;;;;;;5042931;28;20099;-54
2023/10/02 08:12:29;;;;;;;483.88;284.77;;;;;;;;;;5040280;28;20029;-55
2023/10/02 08:14:54;;;;;;;308.25;182.07;;;;;;;;;;5041467;28;20108;-56
2023/10/02 08:17:27;;;;;;;425.57;261.47;;;;;;;;;;5041347;28;20558;-56
2023/10/02 08:19:59;;;;;;;412.38;362.42;;;;;;;;;;5042413;28;20256;-57
2023/10/02 08:22:25;;;;;;;377.98;249.10;;;;;;;;;;5040896;28;20029;-56
2023/10/02 08:24:52;;;;;;;418.35;293.00;;;;;;;;;;5040991;28;20021;-57
2023/10/02 08:27:17;;;;;;;516.40;336.42;;;;;;;;;;5022484;28;20037;-56
2023/10/02 08:29:44;;;;;;;435.23;344.15;;;;;;;;;;5041633;28;20063;-55
2023/10/02 08:32:09;;;;;;;477.02;308.02;;;;;;;;;;5040118;28;20044;-58
2023/10/02 08:34:35;;;;;;;412.63;322.80;;;;;;;;;;5041663;28;20021;-55
2023/10/02 08:37:09;;;;;;;411.80;365.13;;;;;;;;;;5041275;28;20037;-55
2023/10/02 08:39:36;;;;;;;431.33;329.27;;;;;;;;;;5041655;28;20020;-56
2023/10/02 08:42:09;;;;;;;420.25;347.60;;;;;;;;;;5040929;28;20090;-57
2023/10/02 08:44:38;;;;;;;379.38;289.38;;;;;;;;;;5041554;28;20115;-56
2023/10/02 08:47:06;;;;;;;484.00;362.65;;;;;;;;;;5040534;28;20104;-57
2023/10/02 08:49:34;;;;;;;362.92;270.85;;;;;;;;;;5042236;28;20023;-57
2023/10/02 08:52:03;;;;;;;387.80;251.40;;;;;;;;;;5040078;28;20401;-57
2023/10/02 08:54:28;;;;;;;366.02;231.70;;;;;;;;;;5040310;28;20579;-57
2023/10/02 08:57:06;;;;;;;372.73;267.60;;;;;;;;;;5039640;28;20025;-56
2023/10/02 08:59:38;;;;;;;377.38;239.93;;;;;;;;;;5040892;28;20645;-56
2023/10/02 09:02:14;;;;;;;402.63;311.13;;;;;;;;;;5040908;28;20418;-56
2023/10/02 09:04:55;;;;;;;461.77;343.55;;;;;;;;;;5040915;28;20032;-55
2023/10/02 09:08:00;;;;;;;386.33;223.80;;;;;;;;;;5040760;28;20040;-56
2023/10/02 09:10:25;;;;;;;336.33;284.80;;;;;;;;;;5040495;28;20067;-57
2023/10/02 09:13:09;;;;;;;411.57;344.83;;;;;;;;;;5041591;28;20045;-56
2023/10/02 09:15:35;;;;;;;288.50;116.57;;;;;;;;;;5040979;28;20025;-55
2023/10/02 09:18:17;;;;;;;451.63;350.73;;;;;;;;;;5041561;28;20021;-55
2023/10/02 09:21:13;;;;;;;454.35;329.27;;;;;;;;;;5040816;28;20535;-55
2023/10/02 09:23:49;;;;;;;424.17;302.40;;;;;;;;;;5040538;28;20013;-55
2023/10/02 09:26:23;;;;;;;453.65;274.90;;;;;;;;;;5039463;28;20592;-55
2023/10/02 09:28:58;;;;;;;408.15;347.80;;;;;;;;;;5040814;28;20871;-56
2023/10/02 09:31:24;;;;;;;416.15;248.30;;;;;;;;;;5038082;28;20068;-56
2023/10/02 09:33:51;;;;;;;450.90;318.17;;;;;;;;;;5040673;28;20021;-56
2023/10/02 09:36:19;;;;;;;483.50;304.00;;;;;;;;;;5039548;28;20536;-57
2023/10/02 09:38:46;;;;;;;472.00;368.20;;;;;;;;;;5041142;28;20029;-56
2023/10/02 09:41:15;;;;;;;405.88;252.73;;;;;;;;;;5021458;28;20135;-57
2023/10/02 09:43:41;;;;;;;411.15;347.40;;;;;;;;;;5040697;28;20021;-54
2023/10/02 09:46:15;;;;;;;485.20;384.48;;;;;;;;;;5038964;28;20045;-57
2023/10/02 09:48:47;;;;;;;488.50;378.70;;;;;;;;;;5040219;28;20102;-56
2023/10/02 09:51:30;;;;;;;497.75;338.80;;;;;;;;;;5039348;28;20037;-57
2023/10/02 09:54:08;;;;;;;403.75;281.70;;;;;;;;;;5039930;28;20043;-56
2023/10/02 09:57:04;;;;;;;501.75;349.52;;;;;;;;;;5039759;28;20029;-55
2023/10/02 09:59:37;;;;;;;490.08;281.88;;;;;;;;;;5039846;28;20028;-56
2023/10/02 10:02:09;;;;;;;452.95;181.35;;;;;;;;;;5039628;28;20037;-55
2023/10/02 10:05:00;;;;;;;442.27;278.27;;;;;;;;;;5039872;28;20021;-55
2023/10/02 10:10:17;;;;;;;;;;;;;;;;;;5014977;28;20120;-57
2023/10/02 10:12:54;;;;;;;260.98;68.38;;;;;;;;;;5040375;28;20031;-57
2023/10/02 10:15:26;;;;;;;421.85;201.63;;;;;;;;;;5039137;28;20048;-55
2023/10/02 10:17:51;;;;;;;332.05;150.27;;;;;;;;;;5040006;28;20025;-56
2023/10/02 10:20:20;;;;;;;307.55;60.92;;;;;;;;;;5038781;28;20021;-58
2023/10/02 10:22:50;;;;;;;366.73;216.70;;;;;;;;;;5039721;28;20021;-56
2023/10/02 10:30:50;;;;;;;365.15;252.20;;;;;;;;;;5022990;28;20069;-56
2023/10/02 10:33:16;;;;;;;558.33;321.27;;;;;;;;;;5041736;28;20059;-57
2023/10/02 10:36:08;;;;;;;325.58;225.55;;;;;;;;;;5043541;28;20053;-57
2023/10/02 10:38:34;;;;;;;420.55;197.65;;;;;;;;;;5042592;28;20067;-55
2023/10/02 10:41:05;;;;;;;400.40;301.80;;;;;;;;;;5043748;28;20033;-55
2023/10/02 10:46:18;;;;;;;410.90;222.77;;;;;;;;;;5041571;28;20140;-58
2023/10/02 10:49:07;;;;;;;454.20;360.13;;;;;;;;;;5042871;28;20397;-56
2023/10/02 10:51:37;;;;;;;287.17;124.15;;;;;;;;;;5043093;28;20041;-56
2023/10/02 10:54:13;;;;;;;432.90;359.30;;;;;;;;;;5043340;28;20072;-55
2023/10/02 10:56:55;;;;;;;435.88;335.42;;;;;;;;;;5043279;28;20025;-56
2023/10/02 10:59:25;;;;;;;330.95;148.52;;;;;;;;;;5042305;28;20086;-57
2023/10/02 11:04:34;;;;;;;380.10;161.88;;;;;;;;;;5042655;28;20075;-55
2023/10/02 11:06:59;;;;;;;393.25;211.98;;;;;;;;;;5042196;28;20049;-57
2023/10/02 11:09:24;;;;;;;253.50;54.53;;;;;;;;;;5025000;28;20049;-57
2023/10/02 11:11:50;;;;;;;365.25;248.52;;;;;;;;;;5042071;28;20062;-55
2023/10/02 11:14:22;;;;;;;434.48;231.15;;;;;;;;;;5040859;28;20107;-55
2023/10/02 11:16:51;;;;;;;340.35;236.40;;;;;;;;;;5042294;28;20033;-58
2023/10/02 11:22:03;;;;;;;387.08;248.55;;;;;;;;;;5041961;28;20112;-56
2023/10/02 11:24:29;;;;;;;462.92;267.30;;;;;;;;;;5041249;28;20119;-57
2023/10/02 11:27:04;;;;;;;332.98;224.27;;;;;;;;;;5042025;28;20202;-57
2023/10/02 11:29:34;;;;;;;333.55;206.35;;;;;;;;;;5042582;28;20016;-57
2023/10/02 11:32:19;;;;;;;421.27;304.38;;;;;;;;;;5041732;28;20369;-55
2023/10/02 11:34:48;;;;;;;455.08;83.18;;;;;;;;;;5042564;28;20156;-56
2023/10/02 11:37:14;;;;;;;514.40;303.08;;;;;;;;;;5022734;28;20230;-57
2023/10/02 11:39:40;;;;;;;387.05;273.38;;;;;;;;;;5041986;28;20028;-56
2023/10/02 11:42:07;;;;;;;320.52;155.40;;;;;;;;;;5041427;28;20090;-56
2023/10/02 11:44:33;;;;;;;413.42;236.82;;;;;;;;;;5041165;28;20078;-55
2023/10/02 11:47:01;;;;;;;221.03;47.40;;;;;;;;;;5042087;28;20453;-55
2023/10/02 11:49:29;;;;;;;359.23;145.05;;;;;;;;;;5041346;28;20763;-56
2023/10/02 11:52:00;;;;;;;431.65;299.58;;;;;;;;;;5041002;28;20033;-58
2023/10/02 11:54:25;;;;;;;369.23;119.32;;;;;;;;;;5040721;28;20036;-55
2023/10/02 11:56:50;;;;;;;451.02;329.58;;;;;;;;;;5040717;28;20060;-56
2023/10/02 11:59:15;;;;;;;479.73;254.43;;;;;;;;;;5040503;28;20035;-56
2023/10/02 12:01:43;;;;;;;337.07;197.13;;;;;;;;;;5040862;28;20562;-56
2023/10/02 12:04:08;;;;;;;494.75;357.48;;;;;;;;;;5040850;28;20259;-55
2023/10/02 12:06:33;;;;;;;266.57;58.20;;;;;;;;;;5022972;28;20078;-55
2023/10/02 12:09:00;;;;;;;429.57;290.37;;;;;;;;;;5041240;28;20740;-56
2023/10/02 12:11:26;;;;;;;607.88;376.38;;;;;;;;;;5040359;28;20120;-56
2023/10/02 12:13:51;;;;;;;496.52;394.65;;;;;;;;;;5040865;28;20112;-57
2023/10/02 12:16:17;;;;;;;333.65;200.65;;;;;;;;;;5039527;28;20033;-55
2023/10/02 12:18:42;;;;;;;432.52;264.27;;;;;;;;;;5040344;28;20017;-57
2023/10/02 12:21:11;;;;;;;323.63;120.97;;;;;;;;;;5040390;28;20037;-56
2023/10/02 12:23:40;;;;;;;250.77;93.25;;;;;;;;;;5040593;28;20298;-57
2023/10/02 12:26:11;;;;;;;285.58;60.10;;;;;;;;;;5039937;28;20091;-57
2023/10/02 12:28:37;;;;;;;332.17;111.20;;;;;;;;;;5040515;28;20032;-57
2023/10/02 12:31:13;;;;;;;410.35;254.38;;;;;;;;;;5022621;28;20037;-56
2023/10/02 12:33:42;;;;;;;260.48;58.80;;;;;;;;;;5039986;28;20070;-55
2023/10/02 12:36:11;;;;;;;246.07;89.00;;;;;;;;;;5038825;28;20122;-54
2023/10/02 12:38:37;;;;;;;378.85;166.00;;;;;;;;;;5039448;28;20021;-56
2023/10/02 12:41:10;;;;;;;370.10;245.10;;;;;;;;;;5040824;28;20506;-56
2023/10/02 12:43:35;;;;;;;297.90;166.77;;;;;;;;;;5040811;28;20482;-55
2023/10/02 12:46:01;;;;;;;432.02;301.00;;;;;;;;;;5039945;28;20041;-56
2023/10/02 12:48:30;;;;;;;499.13;259.08;;;;;;;;;;5040024;28;20028;-56
2023/10/02 12:50:55;;;;;;;288.10;97.22;;;;;;;;;;5040757;28;20643;-56
2023/10/02 12:53:20;;;;;;;562.17;379.57;;;;;;;;;;5021486;28;20139;-56
2023/10/02 12:55:47;;;;;;;391.20;202.77;;;;;;;;;;5040662;28;20356;-55
2023/10/02 12:58:13;;;;;;;470.20;394.15;;;;;;;;;;5040805;28;20502;-57
2023/10/02 13:00:38;;;;;;;302.67;109.75;;;;;;;;;;5039081;28;20033;-56
2023/10/02 13:03:05;;;;;;;458.92;263.48;;;;;;;;;;5039928;28;20036;-56
2023/10/02 13:05:30;;;;;;;474.90;309.55;;;;;;;;;;5020974;28;20041;-56
2023/10/02 13:07:55;;;;;;;307.93;71.73;;;;;;;;;;5039979;28;20024;-57
2023/10/02 13:10:21;;;;;;;441.70;170.00;;;;;;;;;;5038796;28;20633;-54
2023/10/02 13:12:47;;;;;;;448.30;206.38;;;;;;;;;;5040218;28;20087;-55
2023/10/02 13:15:14;;;;;;;509.35;358.55;;;;;;;;;;5039170;28;20037;-54
2023/10/02 13:17:39;;;;;;;231.85;65.72;;;;;;;;;;5039650;28;20112;-55
2023/10/02 13:20:07;;;;;;;304.47;114.23;;;;;;;;;;5039769;28;20383;-54
2023/10/02 13:22:35;;;;;;;560.17;291.25;;;;;;;;;;5038923;28;20020;-54
2023/10/02 13:25:04;;;;;;;521.10;440.33;;;;;;;;;;5040443;28;20040;-55
2023/10/02 13:27:31;;;;;;;553.15;407.50;;;;;;;;;;5039132;28;20546;-55
2023/10/02 13:29:56;;;;;;;433.10;280.77;;;;;;;;;;5038945;28;20074;-56
2023/10/02 13:32:22;;;;;;;356.87;121.37;;;;;;;;;;5038718;28;20033;-55
2023/10/02 13:34:48;;;;;;;473.63;364.48;;;;;;;;;;5039367;28;20263;-56
2023/10/02 13:37:13;;;;;;;402.92;149.30;;;;;;;;;;5037303;28;20348;-55
2023/10/02 13:39:38;;;;;;;346.93;164.77;;;;;;;;;;5038474;28;20632;-55
2023/10/02 13:42:04;;;;;;;471.88;402.45;;;;;;;;;;5039488;28;20349;-55
2023/10/02 13:44:30;;;;;;;692.97;550.17;;;;;;;;;;5038279;28;20082;-56
2023/10/02 13:46:55;;;;;;;425.30;324.58;;;;;;;;;;5039256;28;20267;-57
2023/10/02 13:49:20;;;;;;;506.83;257.83;;;;;;;;;;5038896;28;20017;-55
2023/10/02 13:51:46;;;;;;;495.23;362.87;;;;;;;;;;5038871;28;20689;-56
2023/10/02 13:54:12;;;;;;;489.88;356.17;;;;;;;;;;5039319;28;20263;-54
2023/10/02 13:56:38;;;;;;;576.38;469.13;;;;;;;;;;5038747;28;20112;-55
2023/10/02 13:59:03;;;;;;;500.00;364.13;;;;;;;;;;5039461;28;20438;-55
2023/10/02 14:01:30;;;;;;;406.20;124.30;;;;;;;;;;5038265;28;20539;-54
2023/10/02 14:03:56;;;;;;;410.55;205.30;;;;;;;;;;5042222;28;20092;-55
2023/10/02 14:06:25;;;;;;;460.43;123.30;;;;;;;;;;5041025;28;20219;-55
2023/10/02 14:08:53;;;;;;;480.75;363.85;;;;;;;;;;5043658;28;20259;-57
2023/10/02 14:11:19;;;;;;;436.42;299.42;;;;;;;;;;5041066;28;20473;-57
2023/10/02 14:13:48;;;;;;;522.20;356.38;;;;;;;;;;5042455;28;20486;-57
2023/10/02 14:16:14;;;;;;;432.02;290.88;;;;;;;;;;5042580;28;20364;-57
2023/10/02 14:18:39;;;;;;;454.02;373.20;;;;;;;;;;5042760;28;20364;-55
2023/10/02 14:21:06;;;;;;;490.60;338.47;;;;;;;;;;5040801;28;20160;-56
2023/10/02 14:23:31;;;;;;;577.22;385.17;;;;;;;;;;5041294;28;20024;-57
2023/10/02 14:25:57;;;;;;;512.22;391.80;;;;;;;;;;5041906;28;20029;-56
2023/10/02 14:28:24;;;;;;;560.10;405.77;;;;;;;;;;5042353;28;20048;-55
2023/10/02 14:30:50;;;;;;;267.30;75.97;;;;;;;;;;5042774;28;20101;-57
2023/10/02 14:33:15;;;;;;;483.52;379.45;;;;;;;;;;5040814;28;20025;-55
2023/10/02 14:35:40;;;;;;;452.45;309.98;;;;;;;;;;5041939;28;20048;-56
2023/10/02 14:38:05;;;;;;;464.67;339.53;;;;;;;;;;5042765;28;20037;-56
2023/10/02 14:40:33;;;;;;;495.27;328.23;;;;;;;;;;5040899;28;20809;-58
2023/10/02 14:43:01;;;;;;;540.80;358.40;;;;;;;;;;5042310;28;20036;-57
2023/10/02 14:45:26;;;;;;;570.72;379.20;;;;;;;;;;5041137;28;20051;-55
2023/10/02 14:47:58;;;;;;;454.52;344.90;;;;;;;;;;5042339;28;20017;-55
2023/10/02 14:50:24;;;;;;;502.85;361.67;;;;;;;;;;5039635;28;20094;-57
2023/10/02 14:52:55;;;;;;;524.75;445.80;;;;;;;;;;5043194;28;20020;-57